Airfield :
LOGIN :

Register | Disclaimer

   EN    FR    IT 

 










Legend :    VFR   Marginal VFR   IFR   Intensive IFR   Very Intensive IFR
Visi :
Ceiling :
>= 8 km
>= 3000ft
5 to 8 km
1000 to 3000 ft
1500m to 5 km
500 to 1000 ft
800 to 1500m
200 to 500 ft
< 800m
< 200 ft
Symbols :   Thunderstorms  Fog  Heavy snow  Heavy precipitations  Wind > 20 kt
SIGMETs :     Misc.  Thunderstorms  Icing  Turbulence  Mountain Waves  Volcanic Ashes






- Airport Elevation : 13 ft
- IATA code : OST


EBOS - Oostend bruges Int.

CURRENT METAR :
  • 192050Z 03011KT 9999 -RA BKN009 BKN035CB 15/13 Q1010 TEMPO 2500 TSRA

EXPIRED METARs :
  • 192020Z 33007KT 8000 RA SCT008 BKN010 15/13 Q1011 TEMPO 3000 RA
  • 191950Z 01009KT 9999 -RA BKN010 15/13 Q1011 TEMPO 3000 RA
  • 191920Z 03008KT 9999 -RA BKN010 16/13 Q1012 NOSIG
  • 191850Z 04009KT 9999 BKN010 16/13 Q1011 NOSIG
  • 191820Z 04009KT 9999 BKN010 16/13 Q1012 NOSIG

TAF TAF EBOS
Valid from the 19 at 18:00 until the 21 at 00:00 UTC


191710Z 1918/2024 03012KT 9999 BKN012
BECMG 1918/1920 SCT018
PROB30
TEMPO 1921/1924 VRB22G36KT 3000 TSRA TSRAGR BKN008 BKN035CB
PROB30
TEMPO 2000/2008 BKN007
BECMG 2001/2003 21007KT
BECMG 2010/2012 28010KT



MET'MAP, your aeronautical weather chart ! - Copyright ORBIFLY December 2007 - Disclaimer

ORBIFLY MET'MAP TEAM :

Programming & Development : Alexandra Zaïnal
Concept & original design : Baudouin d'Aumeries
Assistance for programming : Marc-Olivier Méhu
Technical & hardware support : Manuel Goepfert

Contact : metmap@orbifly.com




SOURCES & CREDITS :

   NOAA